Time;durP1;ratioP1;P1;durP2;ratioP2;P2;SDS_P1;SDS_P2;PMS_P1;PMS_P2;Temp;Humidity;BMP_temperature;BMP_pressure;BME280_temperature;BME280_humidity;BME280_pressure;Samples;Min_cycle;Max_cycle;Signal;HPM_P1;HPM_P2
2023/08/11 00:00:36;;;;;;;;;;;;;;;24.13;58.91;101148.28;7396230;19;1391;-40
2023/08/11 00:03:05;;;;;;;;;;;;;;;24.13;58.67;101158.22;7395741;19;1163;-40
2023/08/11 00:05:36;;;;;;;;;;;;;;;24.02;59.15;101145.84;7397120;19;1290;-40
2023/08/11 00:08:08;;;;;;;;;;;;;;;24.11;59.22;101147.56;7395498;19;1286;-40
2023/08/11 00:10:36;;;;;;;;;;;;;;;24.15;58.71;101148.97;7394568;19;1885;-40
2023/08/11 00:13:08;;;;;;;;;;;;;;;24.06;58.98;101152.63;7396150;19;1910;-40
2023/08/11 00:15:39;;;;;;;;;;;;;;;23.87;59.50;101183.38;7396077;19;1211;-40
2023/08/11 00:18:08;;;;;;;;;;;;;;;23.95;59.29;101182.59;7395673;19;1433;-41
2023/08/11 00:20:36;;;;;;;;;;;;;;;24.01;59.20;101165.75;7395682;19;1175;-40
2023/08/11 00:23:07;;;;;;;;;;;;;;;24.02;58.74;101176.41;7395911;19;1513;-41
2023/08/11 00:25:36;;;;;;;;;;;;;;;23.94;58.97;101172.81;7395816;19;1286;-41
2023/08/11 00:28:04;;;;;;;;;;;;;;;23.94;58.94;101176.34;7396324;19;1346;-41
2023/08/11 00:30:32;;;;;;;;;;;;;;;24.01;58.81;101182.84;7393677;19;1852;-40
2023/08/11 00:33:00;;;;;;;;;;;;;;;24.03;58.60;101174.53;7395009;19;1500;-41
2023/08/11 00:35:29;;;;;;;;;;;;;;;24.00;59.28;101173.03;7395382;19;1543;-40
2023/08/11 00:37:58;;;;;;;;;;;;;;;24.05;59.05;101172.53;7395165;19;1502;-41
2023/08/11 00:40:29;;;;;;;;;;;;;;;24.04;58.87;101178.13;7395122;19;1595;-40
2023/08/11 00:42:58;;;;;;;;;;;;;;;24.02;59.35;101175.56;7394357;19;1148;-40
2023/08/11 00:45:26;;;;;;;;;;;;;;;24.10;58.98;101186.44;7392317;19;1271;-41
2023/08/11 00:47:54;;;;;;;;;;;;;;;24.02;59.29;101172.88;7394601;19;1615;-40
2023/08/11 00:50:22;;;;;;;;;;;;;;;24.00;59.30;101180.28;7393974;19;1855;-40
2023/08/11 00:52:52;;;;;;;;;;;;;;;24.09;58.84;101173.91;7394714;19;1286;-41
2023/08/11 00:55:21;;;;;;;;;;;;;;;24.05;59.06;101156.31;7394821;19;1282;-41
2023/08/11 00:57:52;;;;;;;;;;;;;;;24.01;59.38;101173.84;7394434;19;1383;-41
2023/08/11 01:00:21;;;;;;;;;;;;;;;24.06;59.36;101168.00;7394912;19;1508;-41
2023/08/11 01:02:49;;;;;;;;;;;;;;;24.06;59.27;101158.03;7394294;19;1461;-41
2023/08/11 01:05:19;;;;;;;;;;;;;;;23.95;59.66;101161.00;7394860;19;1112;-41
2023/08/11 01:07:57;;;;;;;;;;;;;;;24.08;59.46;101156.03;7395468;19;1493;-41
2023/08/11 01:10:30;;;;;;;;;;;;;;;24.08;59.15;101164.13;7393002;19;1842;-40
2023/08/11 01:13:08;;;;;;;;;;;;;;;24.08;59.16;101138.97;7394046;19;1480;-41
2023/08/11 01:15:38;;;;;;;;;;;;;;;24.11;59.27;101139.47;7394224;19;1549;-41
2023/08/11 01:18:07;;;;;;;;;;;;;;;24.11;59.06;101139.47;7394413;19;1552;-41
2023/08/11 01:20:37;;;;;;;;;;;;;;;24.10;59.18;101142.34;7395041;19;1337;-41
2023/08/11 01:23:07;;;;;;;;;;;;;;;24.15;58.94;101146.28;7401477;19;1545;-41
2023/08/11 01:25:41;;;;;;;;;;;;;;;24.01;59.24;101128.81;7401456;19;1493;-41
2023/08/11 01:28:10;;;;;;;;;;;;;;;24.04;59.04;101143.84;7401931;19;1153;-40
2023/08/11 01:30:38;;;;;;;;;;;;;;;24.02;59.37;101137.75;7399429;19;2240;-41
2023/08/11 01:33:07;;;;;;;;;;;;;;;23.98;59.31;101128.28;7402133;19;1293;-40
2023/08/11 01:35:35;;;;;;;;;;;;;;;23.97;59.66;101132.84;7397759;19;1845;-41
2023/08/11 01:38:04;;;;;;;;;;;;;;;24.08;59.56;101134.41;7401485;19;1559;-41
2023/08/11 01:40:32;;;;;;;;;;;;;;;24.05;59.39;101123.91;7401160;19;1548;-41
2023/08/11 01:43:05;;;;;;;;;;;;;;;24.02;59.58;101124.25;7397594;19;2085;-40
2023/08/11 01:45:33;;;;;;;;;;;;;;;23.94;59.39;101113.41;7398233;19;1580;-41
2023/08/11 01:48:02;;;;;;;;;;;;;;;23.98;59.39;101112.06;7399810;19;1623;-41
2023/08/11 01:50:30;;;;;;;;;;;;;;;23.94;58.96;101121.50;7399077;19;1839;-41
2023/08/11 01:52:59;;;;;;;;;;;;;;;24.02;59.00;101121.53;7400748;19;1972;-40
2023/08/11 01:55:28;;;;;;;;;;;;;;;23.95;59.40;101121.31;7400192;19;1227;-41
2023/08/11 01:57:57;;;;;;;;;;;;;;;23.98;58.70;101120.16;7400210;19;1505;-40
2023/08/11 02:00:27;;;;;;;;;;;;;;;23.94;59.29;101116.09;7400055;19;1369;-40
2023/08/11 02:02:56;;;;;;;;;;;;;;;23.97;59.03;101131.97;7400687;19;1214;-41
2023/08/11 02:05:26;;;;;;;;;;;;;;;23.98;58.98;101122.88;7400877;19;1298;-40
2023/08/11 02:07:55;;;;;;;;;;;;;;;23.96;58.68;101114.06;7401630;19;1036;-41
2023/08/11 02:10:23;;;;;;;;;;;;;;;23.92;59.31;101123.50;7399065;19;1856;-41
2023/08/11 02:12:51;;;;;;;;;;;;;;;24.04;58.78;101148.41;7400568;19;1543;-40
2023/08/11 02:15:20;;;;;;;;;;;;;;;24.05;58.93;101132.00;7400030;19;1654;-40
2023/08/11 02:17:51;;;;;;;;;;;;;;;24.07;59.07;101131.84;7400002;19;1697;-41
2023/08/11 02:20:21;;;;;;;;;;;;;;;24.00;58.94;101131.66;7399488;19;1453;-40
2023/08/11 02:22:49;;;;;;;;;;;;;;;24.01;58.99;101123.41;7400356;19;1922;-40
2023/08/11 02:25:18;;;;;;;;;;;;;;;23.97;59.02;101138.25;7400714;19;1175;-40
2023/08/11 02:27:47;;;;;;;;;;;;;;;24.06;58.65;101125.63;7399339;19;1501;-40
2023/08/11 02:30:15;;;;;;;;;;;;;;;23.99;58.80;101119.16;7398409;19;1836;-40
2023/08/11 02:32:45;;;;;;;;;;;;;;;24.00;58.92;101137.91;7399555;19;1962;-40
2023/08/11 02:35:17;;;;;;;;;;;;;;;24.10;58.64;101126.97;7399720;19;1340;-40
2023/08/11 02:37:45;;;;;;;;;;;;;;;24.04;58.72;101126.78;7398924;19;1461;-41
2023/08/11 02:40:14;;;;;;;;;;;;;;;24.02;59.06;101141.28;7398115;19;1211;-40
2023/08/11 02:42:48;;;;;;;;;;;;;;;24.05;58.98;101140.13;7398623;19;1379;-40
2023/08/11 02:45:18;;;;;;;;;;;;;;;24.09;58.94;101136.09;7398894;19;1884;-40
2023/08/11 02:47:46;;;;;;;;;;;;;;;24.07;59.00;101148.91;7398642;19;1277;-41
2023/08/11 02:50:17;;;;;;;;;;;;;;;24.01;59.20;101120.69;7398074;19;1838;-41
2023/08/11 02:52:45;;;;;;;;;;;;;;;24.04;58.87;101149.25;7398103;19;1156;-40
2023/08/11 02:55:14;;;;;;;;;;;;;;;23.94;59.21;101145.81;7397087;19;1183;-40
2023/08/11 02:57:43;;;;;;;;;;;;;;;23.93;59.49;101144.09;7398673;19;1329;-41
2023/08/11 03:00:13;;;;;;;;;;;;;;;23.98;59.11;101137.22;7399378;19;1388;-40
2023/08/11 03:02:41;;;;;;;;;;;;;;;24.02;59.26;101157.50;7400031;19;1164;-41
2023/08/11 03:05:11;;;;;;;;;;;;;;;24.04;59.08;101157.34;7397784;19;1697;-40
2023/08/11 03:07:43;;;;;;;;;;;;;;;23.92;59.15;101154.06;7398493;19;1250;-41
2023/08/11 03:10:11;;;;;;;;;;;;;;;23.96;58.87;101154.59;7398402;19;1843;-40
2023/08/11 03:12:40;;;;;;;;;;;;;;;23.90;59.37;101160.63;7398088;19;1400;-40
2023/08/11 03:15:09;;;;;;;;;;;;;;;23.83;59.45;101157.69;7397339;19;1324;-41
2023/08/11 03:17:37;;;;;;;;;;;;;;;23.89;59.55;101156.22;7395999;19;1289;-41
2023/08/11 03:20:12;;;;;;;;;;;;;;;23.95;59.38;101161.00;7398421;19;1341;-40
2023/08/11 03:22:43;;;;;;;;;;;;;;;24.01;59.14;101154.94;7398519;19;1460;-40
2023/08/11 03:25:11;;;;;;;;;;;;;;;23.98;58.78;101164.22;7398158;19;1283;-41
2023/08/11 03:27:41;;;;;;;;;;;;;;;23.96;59.40;101154.59;7397156;19;1263;-40
2023/08/11 03:30:11;;;;;;;;;;;;;;;23.88;59.38;101168.06;7396928;19;1849;-40
2023/08/11 03:32:39;;;;;;;;;;;;;;;23.90;58.98;101155.22;7397269;19;1333;-41
2023/08/11 03:35:08;;;;;;;;;;;;;;;23.91;59.44;101162.31;7397573;19;1304;-40
2023/08/11 03:37:37;;;;;;;;;;;;;;;23.98;59.17;101163.38;7397243;19;1285;-40
2023/08/11 03:40:12;;;;;;;;;;;;;;;23.84;59.60;101163.97;7397523;19;1479;-41
2023/08/11 03:42:44;;;;;;;;;;;;;;;23.96;59.33;101174.34;7394661;19;1447;-40
2023/08/11 03:45:14;;;;;;;;;;;;;;;23.93;59.46;101163.84;7395737;19;1305;-40
2023/08/11 03:47:43;;;;;;;;;;;;;;;23.94;59.16;101170.13;7396530;19;1220;-40
2023/08/11 03:50:12;;;;;;;;;;;;;;;23.93;59.27;101169.25;7397625;19;1837;-41
2023/08/11 03:52:41;;;;;;;;;;;;;;;23.92;59.24;101177.53;7396020;19;1460;-41
2023/08/11 03:55:12;;;;;;;;;;;;;;;23.82;59.38;101183.88;7396836;19;1834;-40
2023/08/11 03:57:41;;;;;;;;;;;;;;;23.81;59.64;101168.69;7393945;19;1688;-41
2023/08/11 04:00:14;;;;;;;;;;;;;;;23.91;59.48;101175.81;7396614;19;1425;-41
2023/08/11 04:02:42;;;;;;;;;;;;;;;23.90;59.05;101168.75;7396835;19;1403;-40
2023/08/11 04:05:11;;;;;;;;;;;;;;;23.92;58.96;101172.97;7396729;19;1353;-40
2023/08/11 04:07:40;;;;;;;;;;;;;;;23.96;59.17;101173.50;7393553;19;1211;-40
2023/08/11 04:10:10;;;;;;;;;;;;;;;23.95;58.68;101169.94;7396042;19;1851;-40
2023/08/11 04:12:41;;;;;;;;;;;;;;;23.92;58.96;101172.13;7393808;19;1211;-40
2023/08/11 04:15:10;;;;;;;;;;;;;;;23.94;58.69;101180.91;6871144;19;9999681;-40
2023/08/11 04:17:38;;;;;;;;;;;;;;;23.94;58.81;101183.63;7387447;19;1452;-41
2023/08/11 04:20:12;;;;;;;;;;;;;;;23.98;58.71;101190.41;7387668;19;1453;-40
2023/08/11 04:22:41;;;;;;;;;;;;;;;23.94;58.41;101189.88;7388554;19;1543;-40
2023/08/11 04:25:11;;;;;;;;;;;;;;;23.94;58.55;101189.88;7389823;19;1383;-40
2023/08/11 04:27:42;;;;;;;;;;;;;;;23.94;58.79;101205.22;7387081;19;1521;-41
2023/08/11 04:30:12;;;;;;;;;;;;;;;23.91;58.63;101197.44;7388234;19;1869;-40
2023/08/11 04:32:40;;;;;;;;;;;;;;;23.87;58.88;101194.19;7388144;19;1367;-40
2023/08/11 04:35:09;;;;;;;;;;;;;;;23.98;58.29;101207.44;7388144;19;1171;-41
2023/08/11 04:37:37;;;;;;;;;;;;;;;23.99;58.50;101195.66;7386797;19;1828;-40
2023/08/11 04:40:09;;;;;;;;;;;;;;;24.04;58.72;101202.44;7387352;19;1563;-41
2023/08/11 04:42:37;;;;;;;;;;;;;;;24.09;59.12;101210.91;7389538;19;1936;-40
2023/08/11 04:45:09;;;;;;;;;;;;;;;24.18;58.31;101205.38;7389476;19;1493;-41
2023/08/11 04:47:37;;;;;;;;;;;;;;;24.46;57.29;101213.31;7389282;19;1613;-40
2023/08/11 04:50:07;;;;;;;;;;;;;;;24.49;57.42;101210.31;7388650;19;1157;-40
2023/08/11 04:52:36;;;;;;;;;;;;;;;24.69;56.93;101204.66;7386469;19;1854;-40
2023/08/11 04:55:07;;;;;;;;;;;;;;;24.76;56.94;101209.25;7390860;19;1764;-41
2023/08/11 04:57:35;;;;;;;;;;;;;;;24.84;56.43;101205.75;7393169;19;1419;-40
2023/08/11 05:00:06;;;;;;;;;;;;;;;24.70;57.01;101209.91;7398374;19;1183;-40
2023/08/11 05:02:36;;;;;;;;;;;;;;;24.72;56.67;101212.47;7398522;19;1474;-40
2023/08/11 05:05:05;;;;;;;;;;;;;;;24.70;57.17;101225.31;7398225;19;1444;-40
2023/08/11 05:07:34;;;;;;;;;;;;;;;24.65;57.33;101216.81;7396429;19;1498;-41
2023/08/11 05:10:02;;;;;;;;;;;;;;;24.44;57.65;101198.28;7395237;19;1170;-40
2023/08/11 05:12:30;;;;;;;;;;;;;;;24.52;57.93;101212.72;7388299;19;1904;-41
2023/08/11 05:14:58;;;;;;;;;;;;;;;24.33;58.75;101204.78;7392099;19;2196;-40
2023/08/11 05:17:27;;;;;;;;;;;;;;;24.37;58.53;101214.28;7395457;19;1404;-40
2023/08/11 05:19:58;;;;;;;;;;;;;;;24.31;58.79;101198.69;7395640;19;1564;-40
2023/08/11 05:22:26;;;;;;;;;;;;;;;24.22;59.04;101200.53;7394592;19;1652;-40
2023/08/11 05:24:54;;;;;;;;;;;;;;;24.28;58.94;101215.25;7393871;19;1587;-41
2023/08/11 05:27:22;;;;;;;;;;;;;;;24.31;59.15;101212.22;7394535;19;1541;-40
2023/08/11 05:29:51;;;;;;;;;;;;;;;24.25;59.14;101205.59;7393977;19;1389;-40
2023/08/11 05:32:19;;;;;;;;;;;;;;;24.25;58.58;101202.88;7391321;19;1842;-41
2023/08/11 05:34:47;;;;;;;;;;;;;;;24.11;58.80;101198.91;7394712;19;1410;-41
2023/08/11 05:37:18;;;;;;;;;;;;;;;24.04;59.20;101214.06;7393002;19;1334;-40
2023/08/11 05:39:47;;;;;;;;;;;;;;;24.20;58.26;101200.66;7394073;19;1999;-40
2023/08/11 05:42:15;;;;;;;;;;;;;;;24.26;58.32;101201.06;7392760;19;1818;-40
2023/08/11 05:44:43;;;;;;;;;;;;;;;24.18;58.62;101209.94;7392990;19;1339;-40
2023/08/11 05:47:12;;;;;;;;;;;;;;;24.25;58.52;101215.56;7394019;19;1608;-40
2023/08/11 05:49:40;;;;;;;;;;;;;;;24.27;58.16;101211.69;7392450;19;1388;-41
2023/08/11 05:52:08;;;;;;;;;;;;;;;24.35;57.99;101219.00;7391046;19;1854;-40
2023/08/11 05:54:39;;;;;;;;;;;;;;;24.37;58.21;101214.28;7393621;19;1524;-41
2023/08/11 05:57:07;;;;;;;;;;;;;;;24.36;57.98;101209.88;7390243;19;1444;-40
2023/08/11 05:59:36;;;;;;;;;;;;;;;24.46;57.77;101212.47;7393045;19;1448;-40
2023/08/11 06:02:04;;;;;;;;;;;;;;;24.44;58.08;101209.94;7392151;19;1426;-41
2023/08/11 06:04:32;;;;;;;;;;;;;;;24.42;58.20;101203.84;7394319;19;1222;-40
2023/08/11 06:07:00;;;;;;;;;;;;;;;24.48;57.66;101205.06;7391627;19;1556;-40
2023/08/11 06:09:29;;;;;;;;;;;;;;;24.42;57.95;101206.53;7393005;19;1612;-41
2023/08/11 06:12:00;;;;;;;;;;;;;;;24.45;57.88;101213.47;7391387;19;1842;-41
2023/08/11 06:14:28;;;;;;;;;;;;;;;24.54;57.59;101216.09;7392138;19;1973;-41
2023/08/11 06:16:56;;;;;;;;;;;;;;;24.73;56.98;101214.16;7391336;19;1427;-40
2023/08/11 06:19:25;;;;;;;;;;;;;;;24.80;57.10;101205.22;7392435;19;1429;-41
2023/08/11 06:21:54;;;;;;;;;;;;;;;24.61;57.69;101210.88;7392740;19;1418;-41
2023/08/11 06:24:23;;;;;;;;;;;;;;;24.68;57.58;101216.50;7392419;19;1438;-41
2023/08/11 06:26:51;;;;;;;;;;;;;;;24.74;57.29;101221.25;7392590;19;1433;-41
2023/08/11 06:29:22;;;;;;;;;;;;;;;24.72;57.49;101220.56;7391387;19;1463;-41
2023/08/11 06:31:51;;;;;;;;;;;;;;;24.58;57.76;101228.28;7390789;19;1853;-40
2023/08/11 06:34:20;;;;;;;;;;;;;;;24.75;57.37;101218.41;7391661;19;1830;-40
2023/08/11 06:36:49;;;;;;;;;;;;;;;24.85;57.19;101223.69;7390640;19;1437;-41
2023/08/11 06:39:17;;;;;;;;;;;;;;;24.68;57.47;101230.03;7385137;19;1509;-41
2023/08/11 06:41:45;;;;;;;;;;;;;;;24.52;57.01;101220.81;7390126;19;1400;-41
2023/08/11 06:44:14;;;;;;;;;;;;;;;24.36;57.09;101218.84;7390850;19;1183;-40
2023/08/11 06:46:45;;;;;;;;;;;;;;;24.39;57.77;101228.47;7393203;19;1408;-40
2023/08/11 06:49:13;;;;;;;;;;;;;;;24.41;57.52;101221.06;7392311;19;1227;-41
2023/08/11 06:51:41;;;;;;;;;;;;;;;24.38;57.24;101215.97;7392297;19;1870;-40
2023/08/11 06:54:10;;;;;;;;;;;;;;;24.49;56.55;101221.13;7392558;19;1337;-41
2023/08/11 06:56:38;;;;;;;;;;;;;;;24.42;57.37;101228.16;7390929;19;1399;-40
2023/08/11 06:59:07;;;;;;;;;;;;;;;24.24;57.64;101225.53;7390989;19;1336;-40
2023/08/11 07:01:36;;;;;;;;;;;;;;;24.18;57.51;101235.13;7392363;19;1360;-41
2023/08/11 07:04:07;;;;;;;;;;;;;;;24.28;57.29;101242.28;7390039;19;1223;-40
2023/08/11 07:06:35;;;;;;;;;;;;;;;24.31;57.25;101231.13;7391682;19;1222;-40
2023/08/11 07:09:03;;;;;;;;;;;;;;;24.33;57.78;101246.22;7390677;19;1397;-41
2023/08/11 07:11:32;;;;;;;;;;;;;;;24.35;57.46;101235.22;7389336;19;1845;-41
2023/08/11 07:14:00;;;;;;;;;;;;;;;24.41;57.01;101248.09;7391154;19;1472;-40
2023/08/11 07:16:29;;;;;;;;;;;;;;;24.29;57.71;101243.97;7390691;19;1637;-40
2023/08/11 07:18:57;;;;;;;;;;;;;;;24.31;57.56;101258.16;7385713;19;1222;-41
2023/08/11 07:21:28;;;;;;;;;;;;;;;24.44;57.86;101250.47;7390171;19;1210;-40
2023/08/11 07:23:56;;;;;;;;;;;;;;;24.35;58.11;101281.16;7389041;19;1269;-40
2023/08/11 07:26:24;;;;;;;;;;;;;;;24.37;57.91;101246.72;7387090;19;1166;-40
2023/08/11 07:28:53;;;;;;;;;;;;;;;24.40;58.01;101243.69;7386792;19;1951;-41
2023/08/11 07:31:21;;;;;;;;;;;;;;;24.35;57.93;101251.44;7387188;19;1853;-40
2023/08/11 07:33:49;;;;;;;;;;;;;;;24.41;57.87;101259.78;7383916;19;1406;-41
2023/08/11 07:36:18;;;;;;;;;;;;;;;24.44;58.44;101250.47;7385258;19;1398;-40
2023/08/11 07:38:48;;;;;;;;;;;;;;;24.52;58.33;101255.97;7388106;19;1504;-40
2023/08/11 07:41:17;;;;;;;;;;;;;;;24.52;58.49;101263.25;7386757;19;1326;-40
2023/08/11 07:43:45;;;;;;;;;;;;;;;24.57;58.28;101250.94;7388033;19;1470;-40
2023/08/11 07:46:13;;;;;;;;;;;;;;;24.57;58.32;101264.47;7388476;19;1267;-40
2023/08/11 07:48:42;;;;;;;;;;;;;;;24.54;58.36;101262.06;7387359;19;1242;-40
2023/08/11 07:51:10;;;;;;;;;;;;;;;24.67;58.16;101261.63;7388529;19;1032;-40
2023/08/11 07:53:39;;;;;;;;;;;;;;;24.63;58.39;101264.81;7387676;19;1839;-40
2023/08/11 07:56:11;;;;;;;;;;;;;;;24.55;58.57;101261.06;7387931;19;1418;-40
2023/08/11 07:58:39;;;;;;;;;;;;;;;24.44;57.32;101264.00;7388419;19;1602;-40
2023/08/11 08:01:08;;;;;;;;;;;;;;;24.38;57.42;101260.06;7384206;19;1616;-40
2023/08/11 08:03:36;;;;;;;;;;;;;;;24.47;58.01;101258.28;7386976;19;1118;-40
2023/08/11 08:06:05;;;;;;;;;;;;;;;24.59;57.70;101254.34;7388837;19;1721;-40
2023/08/11 08:08:34;;;;;;;;;;;;;;;24.64;57.69;101242.19;7389011;19;1852;-40
2023/08/11 08:11:03;;;;;;;;;;;;;;;24.68;57.17;101248.97;7386742;19;1648;-41
2023/08/11 08:13:34;;;;;;;;;;;;;;;24.66;57.67;101241.00;7384006;19;1837;-41
2023/08/11 08:16:02;;;;;;;;;;;;;;;24.77;57.64;101243.44;7387431;19;1397;-40
2023/08/11 08:18:31;;;;;;;;;;;;;;;24.70;58.05;101230.72;7383422;19;1474;-40
2023/08/11 08:20:59;;;;;;;;;;;;;;;24.70;57.63;101236.13;7386815;19;1163;-40
2023/08/11 08:23:27;;;;;;;;;;;;;;;24.64;57.50;101239.47;7386886;19;1554;-40
2023/08/11 08:25:55;;;;;;;;;;;;;;;24.78;57.15;101228.03;7387768;19;1461;-40
2023/08/11 08:28:24;;;;;;;;;;;;;;;24.76;56.54;101214.66;7388766;19;1559;-40
2023/08/11 08:30:55;;;;;;;;;;;;;;;24.80;56.18;101226.84;7396178;19;1334;-40
2023/08/11 08:33:23;;;;;;;;;;;;;;;24.77;56.30;101221.78;7400541;19;1841;-40
2023/08/11 08:35:52;;;;;;;;;;;;;;;24.73;55.86;101233.94;7403624;19;1026;-40
2023/08/11 08:38:20;;;;;;;;;;;;;;;24.79;56.04;101237.88;7401749;19;1627;-40
2023/08/11 08:40:49;;;;;;;;;;;;;;;24.83;55.99;101224.84;7403802;19;1181;-40
2023/08/11 08:43:17;;;;;;;;;;;;;;;24.79;56.09;101224.34;7403048;19;1668;-40
2023/08/11 08:45:46;;;;;;;;;;;;;;;24.93;55.36;101226.41;7403055;19;1003;-40
2023/08/11 08:48:18;;;;;;;;;;;;;;;24.88;55.00;101238.72;7402581;19;1555;-40
2023/08/11 08:50:47;;;;;;;;;;;;;;;24.93;55.50;101226.41;7401924;19;1533;-40
2023/08/11 08:53:15;;;;;;;;;;;;;;;24.97;55.40;101227.78;7400331;19;1877;-40
2023/08/11 08:55:44;;;;;;;;;;;;;;;24.99;55.42;101235.75;7400306;19;1276;-40
2023/08/11 08:58:14;;;;;;;;;;;;;;;24.98;55.10;101239.44;7402387;19;1269;-40
2023/08/11 09:00:43;;;;;;;;;;;;;;;25.11;54.73;101218.19;7401999;19;1938;-40
2023/08/11 09:03:12;;;;;;;;;;;;;;;25.10;54.33;101223.75;7403586;19;1429;-40
2023/08/11 09:05:43;;;;;;;;;;;;;;;25.08;54.91;101244.72;7399302;19;1658;-40
2023/08/11 09:08:11;;;;;;;;;;;;;;;25.02;55.08;101238.94;7400656;19;1562;-40
2023/08/11 09:10:39;;;;;;;;;;;;;;;24.98;55.62;101224.06;7400580;19;1466;-40
2023/08/11 09:13:08;;;;;;;;;;;;;;;25.09;54.87;101222.03;7398022;19;1841;-40
2023/08/11 09:15:36;;;;;;;;;;;;;;;25.23;54.74;101231.41;7401115;19;1203;-40
2023/08/11 09:18:04;;;;;;;;;;;;;;;25.23;55.22;101226.88;7400600;19;1650;-40
2023/08/11 09:20:33;;;;;;;;;;;;;;;25.26;55.47;101210.28;7400544;19;1558;-40
2023/08/11 09:23:03;;;;;;;;;;;;;;;25.16;55.04;101186.03;7401644;19;1623;-40
2023/08/11 09:25:32;;;;;;;;;;;;;;;25.45;55.30;101224.56;7401079;19;1239;-39
2023/08/11 09:28:01;;;;;;;;;;;;;;;25.33;55.37;101222.16;7400662;19;1583;-40
2023/08/11 09:30:31;;;;;;;;;;;;;;;25.38;54.95;101224.34;7400746;19;1222;-40
2023/08/11 09:33:01;;;;;;;;;;;;;;;25.28;55.33;101216.38;7399513;19;1853;-40
2023/08/11 09:35:30;;;;;;;;;;;;;;;25.27;54.57;101219.25;7399059;19;1465;-40
2023/08/11 09:37:58;;;;;;;;;;;;;;;25.26;55.21;101202.16;7398216;19;1237;-50
2023/08/11 09:40:29;;;;;;;;;;;;;;;25.30;54.86;101199.97;7401553;19;1332;-50
2023/08/11 09:42:57;;;;;;;;;;;;;;;25.29;54.80;101203.72;7393791;19;1274;-48
2023/08/11 09:45:26;;;;;;;;;;;;;;;25.29;54.75;101206.41;7394882;19;1238;-50
2023/08/11 09:47:54;;;;;;;;;;;;;;;25.33;54.37;101195.09;7392608;19;1206;-49
2023/08/11 09:50:23;;;;;;;;;;;;;;;25.32;54.10;101206.06;7393830;19;1407;-49
2023/08/11 09:52:52;;;;;;;;;;;;;;;25.28;54.34;101208.25;7391646;19;1861;-49
2023/08/11 09:55:21;;;;;;;;;;;;;;;25.34;54.63;101207.59;7393895;19;1462;-48
2023/08/11 09:57:52;;;;;;;;;;;;;;;25.43;54.67;101210.31;7388289;19;1588;-49
2023/08/11 10:00:21;;;;;;;;;;;;;;;25.33;54.47;101214.03;7393177;19;1285;-49
2023/08/11 10:02:52;;;;;;;;;;;;;;;25.38;54.49;101208.94;7391078;19;1434;-50
2023/08/11 10:05:20;;;;;;;;;;;;;;;25.34;54.43;101204.03;7393880;19;1143;-49
2023/08/11 10:07:50;;;;;;;;;;;;;;;25.31;55.24;101196.28;7392321;19;1775;-50
2023/08/11 10:10:20;;;;;;;;;;;;;;;25.29;55.52;101212.66;7391062;19;1326;-49
2023/08/11 10:12:50;;;;;;;;;;;;;;;25.27;55.28;101205.72;7389681;19;1852;-49
2023/08/11 10:15:22;;;;;;;;;;;;;;;25.30;55.14;101198.09;7391197;19;1266;-50
2023/08/11 10:17:51;;;;;;;;;;;;;;;25.26;54.87;101215.69;7389260;19;2122;-50
2023/08/11 10:20:19;;;;;;;;;;;;;;;25.40;54.55;101206.06;7388607;19;1404;-49
2023/08/11 10:22:48;;;;;;;;;;;;;;;25.31;54.39;101201.69;7388186;19;1272;-50
2023/08/11 10:25:16;;;;;;;;;;;;;;;25.36;54.03;101213.69;7390612;19;1277;-50
2023/08/11 10:27:45;;;;;;;;;;;;;;;25.40;54.50;101201.50;7390656;19;1219;-50
2023/08/11 10:30:16;;;;;;;;;;;;;;;25.51;53.62;101205.75;7391637;19;1195;-50
2023/08/11 10:32:46;;;;;;;;;;;;;;;25.45;53.54;101211.00;7391387;19;1837;-49
2023/08/11 10:35:20;;;;;;;;;;;;;;;25.42;54.38;101204.06;7391463;19;1404;-49
2023/08/11 10:37:58;;;;;;;;;;;;;;;25.42;54.48;101197.78;7391812;19;1862;-49
2023/08/11 10:40:26;;;;;;;;;;;;;;;25.43;53.43;101199.47;7390503;19;1424;-50
2023/08/11 10:42:54;;;;;;;;;;;;;;;25.45;53.67;101194.75;7390863;19;1264;-49
2023/08/11 10:45:23;;;;;;;;;;;;;;;25.43;54.81;101194.06;7389688;19;1239;-49
2023/08/11 10:47:58;;;;;;;;;;;;;;;25.40;54.71;101190.66;7389333;19;1752;-49
2023/08/11 10:50:26;;;;;;;;;;;;;;;25.37;54.29;101185.59;7387869;19;1290;-49
2023/08/11 10:52:58;;;;;;;;;;;;;;;25.32;54.51;101192.53;7388237;19;1900;-49
2023/08/11 10:55:26;;;;;;;;;;;;;;;25.27;54.67;101171.38;7385195;19;1233;-49
2023/08/11 10:58:09;;;;;;;;;;;;;;;25.34;54.34;101179.69;7390454;19;1443;-49
2023/08/11 11:00:37;;;;;;;;;;;;;;;25.45;55.11;101171.25;7388493;19;1211;-49
2023/08/11 11:03:09;;;;;;;;;;;;;;;25.53;54.15;101176.66;7389454;19;1367;-49
2023/08/11 11:05:37;;;;;;;;;;;;;;;25.76;52.98;101182.22;7387017;19;1211;-49
2023/08/11 11:08:06;;;;;;;;;;;;;;;25.76;52.60;101173.25;6874634;19;9999571;-50
2023/08/11 11:10:34;;;;;;;;;;;;;;;25.85;52.47;101164.09;7379342;19;1817;-50
2023/08/11 11:13:02;;;;;;;;;;;;;;;25.76;52.78;101163.25;7382222;19;1856;-50
2023/08/11 11:15:32;;;;;;;;;;;;;;;25.78;53.20;101176.63;7384024;19;1449;-50
2023/08/11 11:18:01;;;;;;;;;;;;;;;25.67;53.72;101172.41;7383013;19;1524;-49
2023/08/11 11:20:32;;;;;;;;;;;;;;;25.75;51.92;101166.16;7382424;19;1500;-49
2023/08/11 11:23:00;;;;;;;;;;;;;;;25.67;53.96;101169.72;7381833;19;1568;-49
2023/08/11 11:25:29;;;;;;;;;;;;;;;25.66;53.97;101161.75;7382323;19;1536;-49
2023/08/11 11:27:58;;;;;;;;;;;;;;;25.73;53.07;101155.47;7384216;19;1568;-50
2023/08/11 11:30:26;;;;;;;;;;;;;;;25.80;53.04;101174.59;7384626;19;1601;-49
2023/08/11 11:32:55;;;;;;;;;;;;;;;25.91;51.48;101159.91;7381447;19;1848;-49
2023/08/11 11:35:24;;;;;;;;;;;;;;;25.74;52.47;101154.44;7383213;19;1508;-49
2023/08/11 11:37:58;;;;;;;;;;;;;;;25.69;52.53;101162.25;7382505;19;1386;-49
2023/08/11 11:40:27;;;;;;;;;;;;;;;25.78;51.73;101166.66;7382867;19;1471;-50
2023/08/11 11:42:55;;;;;;;;;;;;;;;25.72;52.32;101137.53;7383267;19;1310;-50
2023/08/11 11:45:26;;;;;;;;;;;;;;;25.74;51.31;101154.44;7384737;19;1481;-49
2023/08/11 11:47:54;;;;;;;;;;;;;;;25.72;51.48;101152.94;7385673;19;1451;-49
2023/08/11 11:50:26;;;;;;;;;;;;;;;25.67;51.29;101156.16;7383627;19;1559;-49
2023/08/11 11:52:58;;;;;;;;;;;;;;;25.65;51.15;101160.91;7382591;19;1865;-50
2023/08/11 11:55:26;;;;;;;;;;;;;;;25.56;51.51;101151.09;7383013;19;1529;-49
2023/08/11 11:57:54;;;;;;;;;;;;;;;25.64;51.48;101159.19;7386158;19;1219;-50
2023/08/11 12:00:25;;;;;;;;;;;;;;;25.63;51.34;101157.53;7387649;19;1136;-49
2023/08/11 12:02:54;;;;;;;;;;;;;;;25.64;51.45;101170.03;7384844;19;1526;-50
2023/08/11 12:05:23;;;;;;;;;;;;;;;25.56;52.08;101157.34;7386914;19;1100;-50
2023/08/11 12:07:51;;;;;;;;;;;;;;;25.65;51.71;101166.31;7389395;19;1252;-49
2023/08/11 12:10:32;;;;;;;;;;;;;;;25.51;51.26;101150.75;7388373;19;1328;-49
2023/08/11 12:13:01;;;;;;;;;;;;;;;25.60;51.04;101147.03;7384989;19;1849;-50
2023/08/11 12:15:31;;;;;;;;;;;;;;;25.68;51.56;101157.84;7385093;19;1437;-49
2023/08/11 12:17:59;;;;;;;;;;;;;;;25.75;52.25;101145.31;7386641;19;1258;-49
2023/08/11 12:20:27;;;;;;;;;;;;;;;25.67;52.38;101148.03;7387934;19;1296;-49
2023/08/11 12:22:56;;;;;;;;;;;;;;;25.57;51.71;101150.91;7384130;19;1236;-49
2023/08/11 12:25:27;;;;;;;;;;;;;;;25.62;51.51;101139.56;7386513;19;1201;-49
2023/08/11 12:27:55;;;;;;;;;;;;;;;25.66;51.26;101130.09;7387661;19;1400;-50
2023/08/11 12:30:24;;;;;;;;;;;;;;;25.60;50.96;101133.47;7387966;19;1316;-50
2023/08/11 12:32:52;;;;;;;;;;;;;;;25.57;52.27;101136.53;7388454;19;1852;-50
2023/08/11 12:35:20;;;;;;;;;;;;;;;25.65;51.91;101147.38;7387295;19;1332;-49
2023/08/11 12:37:49;;;;;;;;;;;;;;;25.62;51.64;101139.56;7388305;19;1379;-50
2023/08/11 12:40:18;;;;;;;;;;;;;;;25.58;51.61;101143.63;7387356;19;1235;-50
2023/08/11 12:42:49;;;;;;;;;;;;;;;25.49;51.20;101134.69;7388934;19;1306;-49
2023/08/11 12:45:18;;;;;;;;;;;;;;;25.53;51.63;101138.75;7387005;19;1021;-50
2023/08/11 12:47:46;;;;;;;;;;;;;;;25.44;52.44;101125.38;7386241;19;1404;-49
2023/08/11 12:50:14;;;;;;;;;;;;;;;25.54;52.50;101140.41;7388350;19;1462;-49
2023/08/11 12:52:42;;;;;;;;;;;;;;;25.43;52.51;101139.91;7386554;19;1360;-50
2023/08/11 12:55:12;;;;;;;;;;;;;;;25.34;52.22;101128.25;7383707;19;1881;-50